Arklow Cadet — EIRP3 — position and weather

sailwx.info

Track history (hours):
 
Tides and Currents Weather Stations Pressure Air Temp Water Temp Dewpoint Dewpoint Depression Visibility Wind Speed Wind Dir Waves Ship Positions

Arklow Cadet

Last reported at 2017-Dec-18 21:58 UTC. Time now 2017-Dec-18 22:21 UTC.
Position N 54°43' W 005°34'.

Length 87 m; draft 6.2 m.

Type: Cargo ship. MMSI: 250004022.

Date/timePositionNaut miles runAvg speedWind from/ knotsBaromVisibWave heightAir tempDewpointWater temp
2017-Dec-18 21:58N 54°43' W 005°34'0 0.1
2017-Dec-18 21:28N 54°43' W 005°34'0 0.0
2017-Dec-18 20:58N 54°42' W 005°34'0 0.0
2017-Dec-18 20:28N 54°42' W 005°34'0 0.0
2017-Dec-18 19:55N 54°42' W 005°34'0 0.0
2017-Dec-18 19:25N 54°43' W 005°34'0 0.0
2017-Dec-18 18:58N 54°43' W 005°34'0 0.0
2017-Dec-18 18:25N 54°43' W 005°34'0 0.0
2017-Dec-18 17:58N 54°43' W 005°34'0 0.0
2017-Dec-18 17:28N 54°42' W 005°34'0 0.0
2017-Dec-18 16:58N 54°42' W 005°34'0 0.0
2017-Dec-18 16:28N 54°42' W 005°34'0 0.0
2017-Dec-18 15:58N 54°42' W 005°34'0 0.0
2017-Dec-18 15:28N 54°43' W 005°34'0 0.0
2017-Dec-18 14:58N 54°43' W 005°34'0 0.0
2017-Dec-18 14:28N 54°43' W 005°34'0 0.2
2017-Dec-18 13:58N 54°43' W 005°35'0 0.0
2017-Dec-18 13:28N 54°43' W 005°35'0 0.0
2017-Dec-18 12:58N 54°43' W 005°35'0 0.0
2017-Dec-18 12:28N 54°43' W 005°35'0 0.0
2017-Dec-18 11:58N 54°43' W 005°35'0 0.0
2017-Dec-18 11:28N 54°43' W 005°35'0 0.2
2017-Dec-18 10:58N 54°43' W 005°34'0 0.1
2017-Dec-18 10:28N 54°43' W 005°34'0 0.2
2017-Dec-18 09:59N 54°43' W 005°34'3 5.6
2017-Dec-18 09:30N 54°43' W 005°30'3 6.6
2017-Dec-18 09:00N 54°42' W 005°25'2 4.4
2017-Dec-18 08:30N 54°40' W 005°23'2 4.5
2017-Dec-18 08:00N 54°38' W 005°21'2 4.5
2017-Dec-18 07:30N 54°36' W 005°21'3 5.1
2017-Dec-18 07:00N 54°33' W 005°20'3 6.5
2017-Dec-18 06:30N 54°30' W 005°19'3 6.5
2017-Dec-18 06:00N 54°27' W 005°18'3 6.6
2017-Dec-18 05:30N 54°23' W 005°17'3 6.8
2017-Dec-18 05:00N 54°20' W 005°17'4 7.2
2017-Dec-18 04:30N 54°16' W 005°18'4 7.4
2017-Dec-18 04:00N 54°13' W 005°18'158 8.1
2017-Dec-17 08:28N 51°36' W 005°35'5 9.7
2017-Dec-17 08:00N 51°34' W 005°28'5 9.7
2017-Dec-17 07:30N 51°33' W 005°20'5 9.9
2017-Dec-17 06:59N 51°31' W 005°12'510.0
2017-Dec-17 06:30N 51°30' W 005°05'5 9.6
2017-Dec-17 06:00N 51°28' W 004°58'5 9.1
2017-Dec-17 05:28N 51°28' W 004°50'62 8.4
2017-Dec-16 22:05N 51°22' W 003°11'312.0
2017-Dec-16 21:51N 51°22' W 003°07'513.8
2017-Dec-16 21:30N 51°26' W 003°01'713.7
2017-Dec-16 21:00N 51°28' W 002°51'510.4
2017-Dec-16 20:30N 51°30' W 002°43'0 0.6
2017-Dec-16 20:01N 51°30' W 002°43'0 0.2
2017-Dec-16 19:30N 51°30' W 002°43'0 0.0
2017-Dec-16 19:00N 51°30' W 002°43'0 0.0
2017-Dec-16 18:30N 51°30' W 002°43'0 0.0
2017-Dec-16 18:00N 51°30' W 002°43'0 0.0
2017-Dec-16 17:30N 51°30' W 002°43'0 0.0
2017-Dec-16 17:00N 51°30' W 002°43'0 0.0
2017-Dec-16 16:28N 51°30' W 002°43'0 0.0
2017-Dec-16 15:58N 51°30' W 002°43'0 0.0
2017-Dec-16 15:28N 51°30' W 002°43'0 0.0
2017-Dec-16 14:58N 51°30' W 002°43'0 0.0
2017-Dec-16 14:28N 51°30' W 002°43'0 0.0
2017-Dec-16 13:58N 51°30' W 002°43'0 0.0
2017-Dec-16 13:28N 51°30' W 002°43'0 0.0
2017-Dec-16 12:58N 51°30' W 002°43'0 0.0
2017-Dec-16 12:28N 51°30' W 002°43'0 0.0
2017-Dec-16 11:58N 51°30' W 002°43'0 0.0
2017-Dec-16 11:28N 51°30' W 002°43'0 0.0
2017-Dec-16 10:58N 51°30' W 002°43'0 0.0
2017-Dec-16 10:28N 51°30' W 002°43'0 0.0
2017-Dec-16 09:58N 51°30' W 002°43'0 0.0
2017-Dec-16 09:28N 51°30' W 002°43'0 0.0
2017-Dec-16 08:58N 51°30' W 002°43'0 0.0
2017-Dec-16 08:28N 51°30' W 002°43'0 0.0
2017-Dec-16 07:58N 51°30' W 002°43'0 0.0
2017-Dec-16 07:28N 51°30' W 002°43'0 0.0
2017-Dec-16 06:58N 51°30' W 002°43'0 0.0
2017-Dec-16 06:28N 51°30' W 002°43'0 0.0
2017-Dec-16 05:58N 51°30' W 002°43'0 0.0
2017-Dec-16 05:28N 51°30' W 002°43'0 0.8
2017-Dec-16 05:00N 51°30' W 002°43'1 1.2
2017-Dec-16 04:30N 51°30' W 002°43'0 0.7
2017-Dec-16 04:00N 51°30' W 002°43'0 0.8
2017-Dec-16 03:30N 51°31' W 002°42'0 0.0
2017-Dec-16 02:59N 51°31' W 002°42'0 0.0
2017-Dec-16 02:29N 51°31' W 002°42'0 0.0
2017-Dec-16 01:59N 51°31' W 002°42'0 0.0
2017-Dec-16 01:29N 51°31' W 002°42'0 0.0
2017-Dec-16 00:59N 51°31' W 002°42'0 0.0
2017-Dec-16 00:29N 51°31' W 002°42'0 0.0
2017-Dec-15 23:59N 51°31' W 002°42'0 0.0
2017-Dec-15 23:29N 51°31' W 002°42'0 0.0
2017-Dec-15 22:59N 51°31' W 002°42'0 0.0
2017-Dec-15 22:29N 51°31' W 002°42'0 0.0
2017-Dec-15 21:59N 51°31' W 002°42'0 0.0
2017-Dec-15 21:29N 51°31' W 002°42'0 0.0
2017-Dec-15 20:59N 51°31' W 002°42'0 0.0
2017-Dec-15 20:29N 51°31' W 002°42'0 0.0
2017-Dec-15 19:59N 51°31' W 002°42'0 0.0
2017-Dec-15 19:29N 51°31' W 002°42'0 0.0
2017-Dec-15 18:59N 51°31' W 002°42'0 0.0
2017-Dec-15 18:29N 51°31' W 002°42'0 0.0
2017-Dec-15 17:59N 51°31' W 002°42'0 0.0
2017-Dec-15 17:29N 51°31' W 002°42'0 0.0
2017-Dec-15 16:59N 51°31' W 002°42'0 0.0
2017-Dec-15 16:29N 51°31' W 002°42'0 0.0
2017-Dec-15 15:59N 51°31' W 002°42'0 0.0
2017-Dec-15 15:29N 51°31' W 002°42'0 0.0
2017-Dec-15 14:59N 51°31' W 002°42'0 0.0
2017-Dec-15 14:29N 51°31' W 002°42'0 0.0
2017-Dec-15 13:59N 51°31' W 002°42'0 0.0
2017-Dec-15 13:29N 51°31' W 002°42'0 0.0
2017-Dec-15 12:59N 51°31' W 002°42'0 0.0
2017-Dec-15 12:29N 51°31' W 002°42'0 0.0
2017-Dec-15 11:59N 51°31' W 002°42'0 0.0
2017-Dec-15 11:29N 51°31' W 002°42'0 0.0
2017-Dec-15 10:59N 51°31' W 002°42'0 0.0
2017-Dec-15 10:29N 51°31' W 002°42'0 0.0
2017-Dec-15 09:59N 51°31' W 002°42'0 0.0
2017-Dec-15 09:29N 51°31' W 002°42'0 0.0
2017-Dec-15 08:59N 51°31' W 002°42'0 0.0
2017-Dec-15 08:29N 51°31' W 002°42'0 0.0
2017-Dec-15 07:59N 51°31' W 002°42'0 0.0
2017-Dec-15 07:29N 51°31' W 002°42'0 0.0
2017-Dec-15 06:59N 51°31' W 002°42'0 0.0
2017-Dec-15 06:29N 51°31' W 002°42'0 0.0
2017-Dec-15 05:59N 51°31' W 002°42'0 0.0
2017-Dec-15 05:29N 51°31' W 002°42'0 0.0
2017-Dec-15 04:59N 51°31' W 002°42'0 0.0
2017-Dec-15 04:29N 51°31' W 002°42'0 0.0
2017-Dec-15 03:59N 51°31' W 002°42'0 0.0
2017-Dec-15 02:29N 51°31' W 002°42'0 0.0
2017-Dec-15 00:59N 51°31' W 002°42'0 0.0
2017-Dec-15 00:29N 51°31' W 002°42'0 0.0
2017-Dec-14 18:29N 51°31' W 002°42'0 0.0
2017-Dec-14 17:59N 51°31' W 002°42'0 0.0
2017-Dec-14 17:26N 51°31' W 002°42'0 0.0
2017-Dec-14 16:59N 51°31' W 002°42'0 0.0
2017-Dec-14 16:29N 51°31' W 002°42'0 0.0
2017-Dec-14 15:59N 51°31' W 002°42'0 0.0
2017-Dec-14 15:00N 51°31' W 002°42'0 0.9
2017-Dec-14 14:30N 51°30' W 002°43'0 0.7
2017-Dec-14 14:00N 51°31' W 002°43'4 8.8
2017-Dec-14 13:30N 51°29' W 002°50'713.2
2017-Dec-14 13:01N 51°27' W 002°60'67 1.7
2017-Dec-12 22:39N 51°28' W 004°47'210.9
2017-Dec-12 22:30N 51°28' W 004°50'510.8
2017-Dec-12 22:00N 51°28' W 004°58'510.6
2017-Dec-12 21:30N 51°28' W 005°07'5 9.2
2017-Dec-12 20:59N 51°30' W 005°14'5 9.8
2017-Dec-12 20:30N 51°34' W 005°17'5 9.5
2017-Dec-12 20:00N 51°38' W 005°20'5 8.7
2017-Dec-12 19:29N 51°43' W 005°23'144 9.5
2017-Dec-12 04:14N 54°07' W 005°20'310.2
2017-Dec-12 03:55N 54°10' W 005°20'410.4
2017-Dec-12 03:30N 54°15' W 005°20'611.1
2017-Dec-12 03:00N 54°20' W 005°19'611.2
2017-Dec-12 02:30N 54°26' W 005°19'611.3
2017-Dec-12 02:00N 54°31' W 005°20'611.3
2017-Dec-12 01:30N 54°37' W 005°22'511.0
2017-Dec-12 01:00N 54°42' W 005°24'510.5
2017-Dec-12 00:30N 54°47' W 005°28'510.1
2017-Dec-12 00:00N 54°51' W 005°32'23 9.0
2017-Dec-11 21:25N 55°11' W 005°55'3 7.3
2017-Dec-11 20:57N 55°14' W 005°58'3 6.8
2017-Dec-11 20:28N 55°16' W 006°02'3 7.0
2017-Dec-11 20:00N 55°19' W 006°05'4 8.2
2017-Dec-11 19:30N 55°21' W 006°11'4 8.8
2017-Dec-11 19:00N 55°23' W 006°18'4 8.9
2017-Dec-11 18:30N 55°26' W 006°24'4 8.8
2017-Dec-11 18:00N 55°29' W 006°29'510.0
2017-Dec-11 17:30N 55°32' W 006°36'510.3
2017-Dec-11 17:00N 55°36' W 006°42'510.7
2017-Dec-11 16:30N 55°41' W 006°47'511.0
2017-Dec-11 16:00N 55°45' W 006°53'  
Track history (hours):
 
Tides and Currents Weather Stations Pressure Air Temp Water Temp Dewpoint Dewpoint Depression Visibility Wind Speed Wind Dir Waves Ship Positions

Arklow Cadet

Last reported at 2017-Dec-18 21:58 UTC. Time now 2017-Dec-18 22:21 UTC.
Position N 54°43' W 005°34'.

Length 87 m; draft 6.2 m.

Type: Cargo ship. MMSI: 250004022.

Date/timePositionNaut miles runAvg speedWind from/ knotsBaromVisibWave heightAir tempDewpointWater temp
2017-Dec-18 21:58N 54°43' W 005°34'0 0.1
2017-Dec-18 21:28N 54°43' W 005°34'0 0.0
2017-Dec-18 20:58N 54°42' W 005°34'0 0.0
2017-Dec-18 20:28N 54°42' W 005°34'0 0.0
2017-Dec-18 19:55N 54°42' W 005°34'0 0.0
2017-Dec-18 19:25N 54°43' W 005°34'0 0.0
2017-Dec-18 18:58N 54°43' W 005°34'0 0.0
2017-Dec-18 18:25N 54°43' W 005°34'0 0.0
2017-Dec-18 17:58N 54°43' W 005°34'0 0.0
2017-Dec-18 17:28N 54°42' W 005°34'0 0.0
2017-Dec-18 16:58N 54°42' W 005°34'0 0.0
2017-Dec-18 16:28N 54°42' W 005°34'0 0.0
2017-Dec-18 15:58N 54°42' W 005°34'0 0.0
2017-Dec-18 15:28N 54°43' W 005°34'0 0.0
2017-Dec-18 14:58N 54°43' W 005°34'0 0.0
2017-Dec-18 14:28N 54°43' W 005°34'0 0.2
2017-Dec-18 13:58N 54°43' W 005°35'0 0.0
2017-Dec-18 13:28N 54°43' W 005°35'0 0.0
2017-Dec-18 12:58N 54°43' W 005°35'0 0.0
2017-Dec-18 12:28N 54°43' W 005°35'0 0.0
2017-Dec-18 11:58N 54°43' W 005°35'0 0.0
2017-Dec-18 11:28N 54°43' W 005°35'0 0.2
2017-Dec-18 10:58N 54°43' W 005°34'0 0.1
2017-Dec-18 10:28N 54°43' W 005°34'0 0.2
2017-Dec-18 09:59N 54°43' W 005°34'3 5.6
2017-Dec-18 09:30N 54°43' W 005°30'3 6.6
2017-Dec-18 09:00N 54°42' W 005°25'2 4.4
2017-Dec-18 08:30N 54°40' W 005°23'2 4.5
2017-Dec-18 08:00N 54°38' W 005°21'2 4.5
2017-Dec-18 07:30N 54°36' W 005°21'3 5.1
2017-Dec-18 07:00N 54°33' W 005°20'3 6.5
2017-Dec-18 06:30N 54°30' W 005°19'3 6.5
2017-Dec-18 06:00N 54°27' W 005°18'3 6.6
2017-Dec-18 05:30N 54°23' W 005°17'3 6.8
2017-Dec-18 05:00N 54°20' W 005°17'4 7.2
2017-Dec-18 04:30N 54°16' W 005°18'4 7.4
2017-Dec-18 04:00N 54°13' W 005°18'158 8.1
2017-Dec-17 08:28N 51°36' W 005°35'5 9.7
2017-Dec-17 08:00N 51°34' W 005°28'5 9.7
2017-Dec-17 07:30N 51°33' W 005°20'5 9.9
2017-Dec-17 06:59N 51°31' W 005°12'510.0
2017-Dec-17 06:30N 51°30' W 005°05'5 9.6
2017-Dec-17 06:00N 51°28' W 004°58'5 9.1
2017-Dec-17 05:28N 51°28' W 004°50'62 8.4
2017-Dec-16 22:05N 51°22' W 003°11'312.0
2017-Dec-16 21:51N 51°22' W 003°07'513.8
2017-Dec-16 21:30N 51°26' W 003°01'713.7
2017-Dec-16 21:00N 51°28' W 002°51'510.4
2017-Dec-16 20:30N 51°30' W 002°43'0 0.6
2017-Dec-16 20:01N 51°30' W 002°43'0 0.2
2017-Dec-16 19:30N 51°30' W 002°43'0 0.0
2017-Dec-16 19:00N 51°30' W 002°43'0 0.0
2017-Dec-16 18:30N 51°30' W 002°43'0 0.0
2017-Dec-16 18:00N 51°30' W 002°43'0 0.0
2017-Dec-16 17:30N 51°30' W 002°43'0 0.0
2017-Dec-16 17:00N 51°30' W 002°43'0 0.0
2017-Dec-16 16:28N 51°30' W 002°43'0 0.0
2017-Dec-16 15:58N 51°30' W 002°43'0 0.0
2017-Dec-16 15:28N 51°30' W 002°43'0 0.0
2017-Dec-16 14:58N 51°30' W 002°43'0 0.0
2017-Dec-16 14:28N 51°30' W 002°43'0 0.0
2017-Dec-16 13:58N 51°30' W 002°43'0 0.0
2017-Dec-16 13:28N 51°30' W 002°43'0 0.0
2017-Dec-16 12:58N 51°30' W 002°43'0 0.0
2017-Dec-16 12:28N 51°30' W 002°43'0 0.0
2017-Dec-16 11:58N 51°30' W 002°43'0 0.0
2017-Dec-16 11:28N 51°30' W 002°43'0 0.0
2017-Dec-16 10:58N 51°30' W 002°43'0 0.0
2017-Dec-16 10:28N 51°30' W 002°43'0 0.0
2017-Dec-16 09:58N 51°30' W 002°43'0 0.0
2017-Dec-16 09:28N 51°30' W 002°43'0 0.0
2017-Dec-16 08:58N 51°30' W 002°43'0 0.0
2017-Dec-16 08:28N 51°30' W 002°43'0 0.0
2017-Dec-16 07:58N 51°30' W 002°43'0 0.0
2017-Dec-16 07:28N 51°30' W 002°43'0 0.0
2017-Dec-16 06:58N 51°30' W 002°43'0 0.0
2017-Dec-16 06:28N 51°30' W 002°43'0 0.0
2017-Dec-16 05:58N 51°30' W 002°43'0 0.0
2017-Dec-16 05:28N 51°30' W 002°43'0 0.8
2017-Dec-16 05:00N 51°30' W 002°43'1 1.2
2017-Dec-16 04:30N 51°30' W 002°43'0 0.7
2017-Dec-16 04:00N 51°30' W 002°43'0 0.8
2017-Dec-16 03:30N 51°31' W 002°42'0 0.0
2017-Dec-16 02:59N 51°31' W 002°42'0 0.0
2017-Dec-16 02:29N 51°31' W 002°42'0 0.0
2017-Dec-16 01:59N 51°31' W 002°42'0 0.0
2017-Dec-16 01:29N 51°31' W 002°42'0 0.0
2017-Dec-16 00:59N 51°31' W 002°42'0 0.0
2017-Dec-16 00:29N 51°31' W 002°42'0 0.0
2017-Dec-15 23:59N 51°31' W 002°42'0 0.0
2017-Dec-15 23:29N 51°31' W 002°42'0 0.0
2017-Dec-15 22:59N 51°31' W 002°42'0 0.0
2017-Dec-15 22:29N 51°31' W 002°42'0 0.0
2017-Dec-15 21:59N 51°31' W 002°42'0 0.0
2017-Dec-15 21:29N 51°31' W 002°42'0 0.0
2017-Dec-15 20:59N 51°31' W 002°42'0 0.0
2017-Dec-15 20:29N 51°31' W 002°42'0 0.0
2017-Dec-15 19:59N 51°31' W 002°42'0 0.0
2017-Dec-15 19:29N 51°31' W 002°42'0 0.0
2017-Dec-15 18:59N 51°31' W 002°42'0 0.0
2017-Dec-15 18:29N 51°31' W 002°42'0 0.0
2017-Dec-15 17:59N 51°31' W 002°42'0 0.0
2017-Dec-15 17:29N 51°31' W 002°42'0 0.0
2017-Dec-15 16:59N 51°31' W 002°42'0 0.0
2017-Dec-15 16:29N 51°31' W 002°42'0 0.0
2017-Dec-15 15:59N 51°31' W 002°42'0 0.0
2017-Dec-15 15:29N 51°31' W 002°42'0 0.0
2017-Dec-15 14:59N 51°31' W 002°42'0 0.0
2017-Dec-15 14:29N 51°31' W 002°42'0 0.0
2017-Dec-15 13:59N 51°31' W 002°42'0 0.0
2017-Dec-15 13:29N 51°31' W 002°42'0 0.0
2017-Dec-15 12:59N 51°31' W 002°42'0 0.0
2017-Dec-15 12:29N 51°31' W 002°42'0 0.0
2017-Dec-15 11:59N 51°31' W 002°42'0 0.0
2017-Dec-15 11:29N 51°31' W 002°42'0 0.0
2017-Dec-15 10:59N 51°31' W 002°42'0 0.0
2017-Dec-15 10:29N 51°31' W 002°42'0 0.0
2017-Dec-15 09:59N 51°31' W 002°42'0 0.0
2017-Dec-15 09:29N 51°31' W 002°42'0 0.0
2017-Dec-15 08:59N 51°31' W 002°42'0 0.0
2017-Dec-15 08:29N 51°31' W 002°42'0 0.0
2017-Dec-15 07:59N 51°31' W 002°42'0 0.0
2017-Dec-15 07:29N 51°31' W 002°42'0 0.0
2017-Dec-15 06:59N 51°31' W 002°42'0 0.0
2017-Dec-15 06:29N 51°31' W 002°42'0 0.0
2017-Dec-15 05:59N 51°31' W 002°42'0 0.0
2017-Dec-15 05:29N 51°31' W 002°42'0 0.0
2017-Dec-15 04:59N 51°31' W 002°42'0 0.0
2017-Dec-15 04:29N 51°31' W 002°42'0 0.0
2017-Dec-15 03:59N 51°31' W 002°42'0 0.0
2017-Dec-15 02:29N 51°31' W 002°42'0 0.0
2017-Dec-15 00:59N 51°31' W 002°42'0 0.0
2017-Dec-15 00:29N 51°31' W 002°42'0 0.0
2017-Dec-14 18:29N 51°31' W 002°42'0 0.0
2017-Dec-14 17:59N 51°31' W 002°42'0 0.0
2017-Dec-14 17:26N 51°31' W 002°42'0 0.0
2017-Dec-14 16:59N 51°31' W 002°42'0 0.0
2017-Dec-14 16:29N 51°31' W 002°42'0 0.0
2017-Dec-14 15:59N 51°31' W 002°42'0 0.0
2017-Dec-14 15:00N 51°31' W 002°42'0 0.9
2017-Dec-14 14:30N 51°30' W 002°43'0 0.7
2017-Dec-14 14:00N 51°31' W 002°43'4 8.8
2017-Dec-14 13:30N 51°29' W 002°50'713.2
2017-Dec-14 13:01N 51°27' W 002°60'67 1.7
2017-Dec-12 22:39N 51°28' W 004°47'210.9
2017-Dec-12 22:30N 51°28' W 004°50'510.8
2017-Dec-12 22:00N 51°28' W 004°58'510.6
2017-Dec-12 21:30N 51°28' W 005°07'5 9.2
2017-Dec-12 20:59N 51°30' W 005°14'5 9.8
2017-Dec-12 20:30N 51°34' W 005°17'5 9.5
2017-Dec-12 20:00N 51°38' W 005°20'5 8.7
2017-Dec-12 19:29N 51°43' W 005°23'144 9.5
2017-Dec-12 04:14N 54°07' W 005°20'310.2
2017-Dec-12 03:55N 54°10' W 005°20'410.4
2017-Dec-12 03:30N 54°15' W 005°20'611.1
2017-Dec-12 03:00N 54°20' W 005°19'611.2
2017-Dec-12 02:30N 54°26' W 005°19'611.3
2017-Dec-12 02:00N 54°31' W 005°20'611.3
2017-Dec-12 01:30N 54°37' W 005°22'511.0
2017-Dec-12 01:00N 54°42' W 005°24'510.5
2017-Dec-12 00:30N 54°47' W 005°28'510.1
2017-Dec-12 00:00N 54°51' W 005°32'23 9.0
2017-Dec-11 21:25N 55°11' W 005°55'3 7.3
2017-Dec-11 20:57N 55°14' W 005°58'3 6.8
2017-Dec-11 20:28N 55°16' W 006°02'3 7.0
2017-Dec-11 20:00N 55°19' W 006°05'4 8.2
2017-Dec-11 19:30N 55°21' W 006°11'4 8.8
2017-Dec-11 19:00N 55°23' W 006°18'4 8.9
2017-Dec-11 18:30N 55°26' W 006°24'4 8.8
2017-Dec-11 18:00N 55°29' W 006°29'510.0
2017-Dec-11 17:30N 55°32' W 006°36'510.3
2017-Dec-11 17:00N 55°36' W 006°42'510.7
2017-Dec-11 16:30N 55°41' W 006°47'511.0
2017-Dec-11 16:00N 55°45' W 006°53'  

Dump ship's entire track history